createdAt,value
2022-12-19T00:00:16.815Z,101885.22
2022-12-19T00:02:44.798Z,101890.03
2022-12-19T00:05:14.258Z,101892.25
2022-12-19T00:07:41.494Z,101895.81
2022-12-19T00:10:09.494Z,101908.91
2022-12-19T00:12:37.260Z,101901.56
2022-12-19T00:15:05.289Z,101906.38
2022-12-19T00:17:33.481Z,101899.66
2022-12-19T00:20:04.472Z,101907.66
2022-12-19T00:22:31.836Z,101904.13
2022-12-19T00:24:59.085Z,101902.22
2022-12-19T00:27:26.831Z,101906.69
2022-12-19T00:29:54.502Z,101904.94
2022-12-19T00:32:22.170Z,101902.22
2022-12-19T00:34:49.505Z,101893.06
2022-12-19T00:37:17.117Z,101905.09
2022-12-19T00:39:44.508Z,101895.81
2022-12-19T00:42:12.509Z,101903.16
2022-12-19T00:44:40.040Z,101902.50
2022-12-19T00:47:07.596Z,101906.31
2022-12-19T00:49:35.435Z,101905.31
2022-12-19T00:52:05.261Z,101902.50
2022-12-19T00:54:32.584Z,101895.88
2022-12-19T00:57:00.714Z,101897.09
2022-12-19T00:59:27.852Z,101895.75
2022-12-19T01:01:55.588Z,101903.53
2022-12-19T01:04:29.111Z,101900.91
2022-12-19T01:06:58.087Z,101901.13
2022-12-19T01:09:31.515Z,101899.31
2022-12-19T01:12:17.721Z,101894.41
2022-12-19T01:14:45.292Z,101896.91
2022-12-19T01:17:13.096Z,101887.88
2022-12-19T01:19:44.297Z,101888.94
2022-12-19T01:22:15.064Z,101882.25
2022-12-19T01:24:43.120Z,101871.97
2022-12-19T01:27:10.500Z,101869.31
2022-12-19T01:29:51.167Z,101868.00
2022-12-19T01:32:21.622Z,101860.38
2022-12-19T01:34:48.997Z,101854.88
2022-12-19T01:37:16.733Z,101852.94
2022-12-19T01:39:44.971Z,101850.88
2022-12-19T01:42:23.522Z,101842.38
2022-12-19T01:45:13.417Z,101834.09
2022-12-19T01:47:54.740Z,101830.44
2022-12-19T01:50:51.433Z,101840.31
2022-12-19T01:53:34.031Z,101835.88
2022-12-19T01:56:09.069Z,101840.38
2022-12-19T01:58:38.085Z,101837.91
2022-12-19T02:01:06.353Z,101840.75
2022-12-19T02:03:35.670Z,101837.56
2022-12-19T02:06:05.661Z,101841.03
2022-12-19T02:08:33.018Z,101837.47
2022-12-19T02:11:03.037Z,101849.88
2022-12-19T02:13:30.624Z,101846.19
2022-12-19T02:16:22.657Z,101838.63
2022-12-19T02:19:17.907Z,101847.50
2022-12-19T02:21:49.401Z,101849.78
2022-12-19T02:24:20.875Z,101857.13
2022-12-19T02:27:02.048Z,101861.09
2022-12-19T02:29:56.498Z,101847.84
2022-12-19T02:33:01.566Z,101859.25
2022-12-19T02:35:36.889Z,101859.38
2022-12-19T02:38:16.702Z,101853.50
2022-12-19T02:41:01.314Z,101861.69
2022-12-19T02:43:31.041Z,101859.38
2022-12-19T02:45:59.508Z,101859.19
2022-12-19T02:48:27.761Z,101862.50
2022-12-19T02:50:55.207Z,101868.13
2022-12-19T02:53:23.928Z,101861.63
2022-12-19T02:56:14.664Z,101859.28
2022-12-19T02:59:00.729Z,101863.88
2022-12-19T03:01:58.476Z,101862.91
2022-12-19T03:04:39.751Z,101856.19
2022-12-19T03:07:17.240Z,101854.78
2022-12-19T03:09:59.342Z,101860.13
2022-12-19T03:12:35.561Z,101856.19
2022-12-19T03:15:03.948Z,101849.88
2022-12-19T03:17:36.040Z,101829.66
2022-12-19T03:20:11.586Z,101828.47
2022-12-19T03:22:39.354Z,101834.88
2022-12-19T03:25:07.614Z,101822.94
2022-12-19T03:27:36.098Z,101818.81
2022-12-19T03:30:12.775Z,101811.06
2022-12-19T03:32:42.592Z,101806.31
2022-12-19T03:35:16.363Z,101809.91
2022-12-19T03:37:45.164Z,101814.72
2022-12-19T03:40:19.800Z,101816.50
2022-12-19T03:43:07.610Z,101810.72
2022-12-19T03:45:40.920Z,101824.47
2022-12-19T03:48:15.891Z,101825.28
2022-12-19T03:50:53.809Z,101831.22
2022-12-19T03:53:45.997Z,101828.63
2022-12-19T03:56:38.901Z,101829.03
2022-12-19T03:59:28.814Z,101830.25
2022-12-19T04:01:57.727Z,101832.81
2022-12-19T04:04:28.018Z,101821.53
2022-12-19T04:06:55.692Z,101820.16
2022-12-19T04:09:24.284Z,101818.69
2022-12-19T04:11:55.138Z,101830.22
2022-12-19T04:14:31.749Z,101814.16
2022-12-19T04:17:33.392Z,101819.31
2022-12-19T04:20:09.391Z,101825.06
2022-12-19T04:22:44.031Z,101816.34
2022-12-19T04:25:15.404Z,101823.88
2022-12-19T04:27:46.788Z,101825.06
2022-12-19T04:30:17.031Z,101826.28
2022-12-19T04:32:45.055Z,101826.06
2022-12-19T04:35:12.836Z,101825.91
2022-12-19T04:37:40.639Z,101833.28
2022-12-19T04:40:09.045Z,101827.50
2022-12-19T04:42:37.048Z,101829.28
2022-12-19T04:45:06.061Z,101827.13
2022-12-19T04:47:33.632Z,101821.59
2022-12-19T04:50:01.400Z,101821.59
2022-12-19T04:52:28.844Z,101822.38
2022-12-19T04:54:56.055Z,101831.53
2022-12-19T04:57:23.753Z,101830.91
2022-12-19T04:59:51.056Z,101824.78
2022-12-19T05:02:18.957Z,101823.38
2022-12-19T05:04:46.835Z,101821.59
2022-12-19T05:07:14.652Z,101830.97
2022-12-19T05:09:42.014Z,101834.72
2022-12-19T05:12:10.516Z,101831.72
2022-12-19T05:14:38.706Z,101831.56
2022-12-19T05:17:06.418Z,101828.78
2022-12-19T05:19:33.856Z,101832.59
2022-12-19T05:22:01.067Z,101827.03
2022-12-19T05:24:28.853Z,101839.16
2022-12-19T05:26:56.333Z,101830.81
2022-12-19T05:29:23.715Z,101818.31
2022-12-19T05:31:51.074Z,101814.13
2022-12-19T05:34:18.650Z,101813.94
2022-12-19T05:36:46.803Z,101813.72
2022-12-19T05:39:14.571Z,101820.72
2022-12-19T05:41:41.968Z,101831.63
2022-12-19T05:44:09.910Z,101827.69
2022-12-19T05:46:37.718Z,101813.56
2022-12-19T05:49:05.052Z,101816.38
2022-12-19T05:51:32.863Z,101823.72
2022-12-19T05:54:03.188Z,101817.75
2022-12-19T05:56:31.086Z,101822.91
2022-12-19T05:58:58.281Z,101814.38
2022-12-19T06:01:27.977Z,101813.41
2022-12-19T06:03:55.715Z,101820.56
2022-12-19T06:06:25.092Z,101824.94
2022-12-19T06:08:56.046Z,101820.34
2022-12-19T06:11:23.965Z,101830.72
2022-12-19T06:13:53.982Z,101826.94
2022-12-19T06:16:22.046Z,101828.56
2022-12-19T06:18:49.079Z,101833.53
2022-12-19T06:21:21.859Z,101831.72
2022-12-19T06:23:49.199Z,101832.75
2022-12-19T06:26:20.093Z,101822.22
2022-12-19T06:28:48.876Z,101833.53
2022-12-19T06:31:16.932Z,101839.28
2022-12-19T06:33:44.317Z,101830.34
2022-12-19T06:36:23.911Z,101833.31
2022-12-19T06:38:52.011Z,101838.94
2022-12-19T06:41:38.848Z,101841.13
2022-12-19T06:44:09.049Z,101832.59
2022-12-19T06:46:37.521Z,101849.13
2022-12-19T06:49:05.091Z,101843.56
2022-12-19T06:51:32.893Z,101839.00
2022-12-19T07:00:55.252Z,101836.56
2022-12-19T07:03:26.363Z,101847.72
2022-12-19T07:05:54.480Z,101854.88
2022-12-19T07:08:21.456Z,101847.66
2022-12-19T07:10:48.337Z,101847.84
2022-12-19T07:13:15.474Z,101849.63
2022-12-19T07:15:42.404Z,101852.03
2022-12-19T07:18:09.864Z,101855.56
2022-12-19T07:20:41.827Z,101851.75
2022-12-19T07:23:14.688Z,101842.19
2022-12-19T07:25:42.081Z,101845.56
2022-12-19T07:28:09.083Z,101846.19
2022-12-19T07:30:36.077Z,101847.16
2022-12-19T07:33:02.945Z,101845.97
2022-12-19T07:35:30.003Z,101842.78
2022-12-19T07:38:02.974Z,101840.19
2022-12-19T07:40:30.042Z,101844.59
2022-12-19T07:43:00.801Z,101845.19
2022-12-19T07:45:28.198Z,101835.50
2022-12-19T07:47:55.029Z,101840.84
2022-12-19T07:50:22.437Z,101855.19
2022-12-19T07:52:49.195Z,101855.19
2022-12-19T07:55:16.515Z,101865.91
2022-12-19T07:57:47.069Z,101868.25
2022-12-19T08:00:15.339Z,101871.47
2022-12-19T08:02:42.947Z,101872.28
2022-12-19T08:05:11.712Z,101868.91
2022-12-19T08:07:38.701Z,101873.66
2022-12-19T08:10:07.025Z,101891.75
2022-12-19T08:12:34.463Z,101899.34
2022-12-19T08:15:01.397Z,101894.56
2022-12-19T08:17:28.525Z,101882.63
2022-12-19T08:19:55.822Z,101892.41
2022-12-19T08:22:23.311Z,101880.25
2022-12-19T08:24:50.553Z,101885.44
2022-12-19T08:27:17.758Z,101892.63
2022-12-19T08:29:44.891Z,101889.84
2022-12-19T08:32:17.058Z,101885.50
2022-12-19T08:34:47.526Z,101887.69
2022-12-19T08:37:14.656Z,101868.81
2022-12-19T08:39:41.499Z,101877.38
2022-12-19T08:42:08.369Z,101877.56
2022-12-19T08:44:35.862Z,101865.44
2022-12-19T08:47:04.726Z,101866.84
2022-12-19T08:49:31.654Z,101867.84
2022-12-19T08:52:01.990Z,101863.66
2022-12-19T08:54:28.859Z,101854.84
2022-12-19T08:56:56.841Z,101860.47
2022-12-19T08:59:30.734Z,101859.22
2022-12-19T09:02:03.457Z,101855.69
2022-12-19T09:05:57.342Z,101857.69
2022-12-19T09:07:22.345Z,101855.69
2022-12-19T09:09:49.106Z,101854.91
2022-12-19T09:12:16.822Z,101841.75
2022-12-19T09:14:44.474Z,101855.31
2022-12-19T09:17:11.341Z,101863.84
2022-12-19T09:19:38.212Z,101870.81
2022-12-19T09:22:05.888Z,101869.22
2022-12-19T09:24:33.854Z,101879.97
2022-12-19T09:27:00.633Z,101886.75
2022-12-19T09:29:32.221Z,101876.75
2022-12-19T09:32:01.971Z,101868.81
2022-12-19T09:34:38.145Z,101862.47
2022-12-19T09:37:16.024Z,101861.47
2022-12-19T09:39:45.660Z,101866.03
2022-12-19T09:42:22.359Z,101853.25
2022-12-19T09:45:08.297Z,101840.50
2022-12-19T09:47:39.672Z,101842.53
2022-12-19T09:50:30.726Z,101850.00
2022-12-19T09:53:08.257Z,101845.56
2022-12-19T09:55:38.101Z,101827.25
2022-12-19T09:58:43.506Z,101826.03
2022-12-19T10:01:19.614Z,101825.50
2022-12-19T10:03:59.612Z,101830.00
2022-12-19T10:07:21.277Z,101821.75
2022-12-19T10:12:05.135Z,101823.28
2022-12-19T10:12:44.448Z,101823.28
2022-12-19T10:15:26.211Z,101829.47
2022-12-19T10:18:20.582Z,101818.88
2022-12-19T10:21:59.059Z,101820.41
2022-12-19T10:24:23.804Z,101821.66
2022-12-19T10:26:56.941Z,101814.28
2022-12-19T10:30:01.281Z,101809.47
2022-12-19T10:32:54.794Z,101808.94
2022-12-19T10:35:22.587Z,101802.03
2022-12-19T10:38:05.346Z,101805.88
2022-12-19T10:40:37.612Z,101793.03
2022-12-19T10:43:33.946Z,101800.47
2022-12-19T10:46:13.395Z,101792.44
2022-12-19T10:48:40.376Z,101796.91
2022-12-19T10:51:13.684Z,101797.56
2022-12-19T10:54:09.029Z,101796.06
2022-12-19T10:56:37.957Z,101793.53
2022-12-19T10:59:16.121Z,101781.16
2022-12-19T11:01:43.438Z,101773.75
2022-12-19T11:04:30.671Z,101767.34
2022-12-19T11:07:03.708Z,101781.84
2022-12-19T11:09:32.809Z,101777.69
2022-12-19T11:18:15.275Z,101770.84
2022-12-19T11:19:42.603Z,101777.94
2022-12-19T11:29:17.150Z,101790.34
2022-12-19T11:29:32.465Z,101770.97
2022-12-19T11:29:42.762Z,101780.56
2022-12-19T11:30:35.302Z,101764.94
2022-12-19T11:31:52.977Z,101761.03
2022-12-19T11:32:40.658Z,101759.59
2022-12-19T11:35:18.508Z,101752.69
2022-12-19T11:38:06.177Z,101741.88
2022-12-19T11:40:34.040Z,101730.75
2022-12-19T11:43:46.657Z,101725.38
2022-12-19T11:46:41.430Z,101728.75
2022-12-19T11:49:13.529Z,101725.66
2022-12-19T11:51:45.855Z,101727.88
2022-12-19T11:54:23.901Z,101725.72
2022-12-19T11:56:51.113Z,101721.97
2022-12-19T11:59:27.743Z,101710.03
2022-12-19T12:02:25.635Z,101710.81
2022-12-19T12:05:17.170Z,101700.56
2022-12-19T12:11:07.983Z,101707.63
2022-12-19T12:16:00.717Z,101709.25
2022-12-19T12:23:43.105Z,101710.91
2022-12-19T12:31:01.842Z,101702.53
2022-12-19T12:31:08.710Z,101695.63
2022-12-19T12:31:39.146Z,101691.28
2022-12-19T12:31:39.618Z,101693.25
2022-12-19T12:31:40.352Z,101688.78
2022-12-19T12:35:48.609Z,101690.94
2022-12-19T12:42:05.592Z,101705.38
2022-12-19T12:44:41.102Z,101703.81
2022-12-19T12:47:24.384Z,101694.38
2022-12-19T12:50:13.870Z,101702.19
2022-12-19T12:52:44.080Z,101699.13
2022-12-19T12:55:30.234Z,101686.59
2022-12-19T12:57:57.866Z,101686.63
2022-12-19T13:00:26.933Z,101678.22
2022-12-19T13:03:12.003Z,101672.13
2022-12-19T13:05:40.893Z,101676.28
2022-12-19T13:08:34.277Z,101665.31
2022-12-19T13:11:03.492Z,101661.00
2022-12-19T13:13:58.200Z,101655.47
2022-12-19T13:16:43.316Z,101654.16
2022-12-19T13:19:35.359Z,101661.19
2022-12-19T13:22:05.627Z,101667.53
2022-12-19T13:24:45.400Z,101663.22
2022-12-19T13:27:21.575Z,101663.59
2022-12-19T13:30:00.767Z,101666.19
2022-12-19T13:32:32.621Z,101666.16
2022-12-19T13:35:56.522Z,101653.91
2022-12-19T13:40:01.585Z,101656.66
2022-12-19T13:41:02.017Z,101645.69
2022-12-19T13:43:47.862Z,101638.53
2022-12-19T13:46:29.193Z,101647.19
2022-12-19T13:49:00.439Z,101657.16
2022-12-19T13:51:27.422Z,101661.41
2022-12-19T13:53:59.559Z,101655.50
2022-12-19T13:56:30.812Z,101656.06
2022-12-19T13:59:00.732Z,101653.38
2022-12-19T14:01:33.556Z,101654.94
2022-12-19T14:04:07.894Z,101651.91
2022-12-19T14:06:47.513Z,101651.25
2022-12-19T14:11:26.874Z,101651.97
2022-12-19T14:13:52.979Z,101655.50
2022-12-19T14:15:41.227Z,101647.47
2022-12-19T14:18:45.107Z,101635.31
2022-12-19T14:22:04.607Z,101648.41
2022-12-19T14:24:11.008Z,101646.25
2022-12-19T14:28:17.737Z,101641.94
2022-12-19T14:30:28.625Z,101641.78
2022-12-19T14:33:44.255Z,101639.22
2022-12-19T14:36:06.038Z,101641.28
2022-12-19T14:39:20.914Z,101639.41
2022-12-19T14:41:08.440Z,101642.22
2022-12-19T14:43:58.694Z,101644.88
2022-12-19T14:52:35.101Z,101649.94
2022-12-19T14:54:10.728Z,101636.47
2022-12-19T14:54:30.698Z,101640.28
2022-12-19T14:56:13.076Z,101643.69
2022-12-19T14:58:54.819Z,101641.72
2022-12-19T15:01:26.051Z,101638.56
2022-12-19T15:04:48.616Z,101636.59
2022-12-19T15:07:23.471Z,101645.53
2022-12-19T15:11:06.146Z,101641.34
2022-12-19T15:14:53.151Z,101654.47
2022-12-19T15:16:26.959Z,101657.25
2022-12-19T15:18:57.380Z,101653.88
2022-12-19T15:21:24.933Z,101650.91
2022-12-19T15:23:52.232Z,101659.06
2022-12-19T15:26:27.358Z,101650.13
2022-12-19T15:28:56.411Z,101652.50
2022-12-19T15:31:30.290Z,101655.88
2022-12-19T15:36:45.440Z,101654.50
2022-12-19T15:39:15.143Z,101652.28
2022-12-19T15:41:42.619Z,101652.91
2022-12-19T15:44:19.315Z,101648.53
2022-12-19T15:46:49.192Z,101639.78
2022-12-19T15:49:19.162Z,101635.03
2022-12-19T15:51:47.281Z,101638.59
2022-12-19T15:54:47.242Z,101640.19
2022-12-19T15:57:01.938Z,101642.59
2022-12-19T15:59:37.464Z,101643.16
2022-12-19T16:02:15.990Z,101643.56
2022-12-19T16:04:44.187Z,101636.59
2022-12-19T16:07:19.500Z,101630.44
2022-12-19T16:09:47.173Z,101632.63
2022-12-19T16:12:22.467Z,101631.84
2022-12-19T16:14:56.343Z,101621.72
2022-12-19T16:17:25.420Z,101633.44
2022-12-19T16:19:52.669Z,101628.84
2022-12-19T16:22:23.179Z,101627.88
2022-12-19T16:24:51.470Z,101628.84
2022-12-19T16:27:21.476Z,101627.47
2022-12-19T16:29:48.721Z,101630.66
2022-12-19T16:32:16.101Z,101629.44
2022-12-19T16:34:43.299Z,101621.88
2022-12-19T16:37:10.318Z,101620.69
2022-12-19T16:39:37.434Z,101611.94
2022-12-19T16:42:05.957Z,101606.19
2022-12-19T16:44:34.430Z,101600.44
2022-12-19T16:47:01.333Z,101599.03
2022-12-19T16:49:28.627Z,101604.41
2022-12-19T16:51:55.486Z,101608.78
2022-12-19T16:54:22.691Z,101607.59
2022-12-19T16:56:52.313Z,101610.75
2022-12-19T16:59:22.126Z,101620.28
2022-12-19T17:01:49.645Z,101625.25
2022-12-19T17:04:22.830Z,101621.44
2022-12-19T17:06:52.464Z,101621.44
2022-12-19T17:09:23.527Z,101610.53
2022-12-19T17:11:53.742Z,101618.66
2022-12-19T17:14:26.570Z,101618.28
2022-12-19T17:16:55.615Z,101620.06
2022-12-19T17:19:36.978Z,101614.69
2022-12-19T17:22:13.138Z,101617.09
2022-12-19T17:24:40.574Z,101623.44
2022-12-19T17:27:08.224Z,101623.44
2022-12-19T17:29:35.226Z,101626.78
2022-12-19T17:32:02.798Z,101628.16
2022-12-19T17:34:32.226Z,101622.22
2022-12-19T17:37:00.747Z,101629.75
2022-12-19T17:39:29.684Z,101621.81
2022-12-19T17:41:59.751Z,101630.38
2022-12-19T17:44:27.326Z,101634.94
2022-12-19T17:46:54.756Z,101632.94
2022-12-19T17:49:27.327Z,101635.69
2022-12-19T17:51:55.156Z,101636.09
2022-12-19T17:54:23.483Z,101633.13
2022-12-19T17:56:51.471Z,101629.50
2022-12-19T17:59:19.429Z,101630.72
2022-12-19T18:01:47.525Z,101639.50
2022-12-19T18:04:17.343Z,101637.31
2022-12-19T18:06:45.285Z,101627.94
2022-12-19T18:09:20.347Z,101631.72
2022-12-19T18:11:48.765Z,101636.88
2022-12-19T18:14:16.606Z,101632.94
2022-12-19T18:16:44.766Z,101623.38
2022-12-19T18:19:19.727Z,101624.38
2022-12-19T18:21:47.186Z,101622.56
2022-12-19T18:24:18.182Z,101633.50
2022-12-19T18:26:45.634Z,101630.31
2022-12-19T18:29:13.563Z,101627.72
2022-12-19T18:31:48.190Z,101625.97
2022-12-19T18:34:20.181Z,101621.00
2022-12-19T18:36:47.616Z,101615.00
2022-12-19T18:39:28.628Z,101601.91
2022-12-19T18:41:56.109Z,101586.41
2022-12-19T18:44:23.649Z,101593.94
2022-12-19T18:46:52.015Z,101584.00
2022-12-19T18:49:19.835Z,101579.19
2022-12-19T18:51:47.324Z,101570.03
2022-12-19T18:54:18.520Z,101573.25
2022-12-19T18:56:46.446Z,101571.06
2022-12-19T18:59:14.203Z,101574.28
2022-12-19T19:01:44.815Z,101581.41
2022-12-19T19:04:14.635Z,101568.09
2022-12-19T19:06:48.538Z,101562.91
2022-12-19T19:09:18.525Z,101568.66
2022-12-19T19:11:45.915Z,101569.66
2022-12-19T19:14:13.377Z,101566.28
2022-12-19T19:16:40.817Z,101570.84
2022-12-19T19:19:11.217Z,101568.09
2022-12-19T19:21:39.220Z,101569.31
2022-12-19T19:24:09.528Z,101558.00
2022-12-19T19:26:37.126Z,101567.94
2022-12-19T19:29:05.545Z,101556.59
2022-12-19T19:31:35.851Z,101554.41
2022-12-19T19:34:13.227Z,101564.56
2022-12-19T19:36:42.806Z,101557.97
2022-12-19T19:39:11.237Z,101552.63
2022-12-19T19:41:38.667Z,101551.78
2022-12-19T19:44:05.927Z,101555.09
2022-12-19T19:46:33.315Z,101550.50
2022-12-19T19:49:00.553Z,101543.56
2022-12-19T19:51:29.255Z,101540.38
2022-12-19T19:53:56.668Z,101547.91
2022-12-19T19:56:24.400Z,101553.84
2022-12-19T19:58:52.567Z,101543.91
2022-12-19T20:01:20.167Z,101550.69
2022-12-19T20:03:48.713Z,101551.44
2022-12-19T20:06:16.665Z,101556.81
2022-12-19T20:08:43.928Z,101557.97
2022-12-19T20:11:11.236Z,101557.38
2022-12-19T20:13:38.696Z,101558.13
2022-12-19T20:16:10.472Z,101568.09
2022-12-19T20:18:40.064Z,101567.66
2022-12-19T20:21:12.681Z,101566.84
2022-12-19T20:23:42.345Z,101567.84
2022-12-19T20:26:11.699Z,101562.72
2022-12-19T20:28:47.851Z,101552.78
2022-12-19T20:31:16.843Z,101542.00
2022-12-19T20:33:45.373Z,101543.78
2022-12-19T20:36:13.868Z,101544.97
2022-12-19T20:38:41.308Z,101543.00
2022-12-19T20:41:09.080Z,101542.16
2022-12-19T20:43:38.455Z,101549.28
2022-12-19T20:46:14.018Z,101547.31
2022-12-19T20:48:41.696Z,101552.69
2022-12-19T20:51:10.127Z,101552.47
2022-12-19T20:53:38.613Z,101542.34
2022-12-19T20:56:07.085Z,101541.16
2022-12-19T20:58:36.381Z,101540.75
2022-12-19T21:01:12.137Z,101535.00
2022-12-19T21:03:40.032Z,101537.59
2022-12-19T21:06:09.172Z,101537.59
2022-12-19T21:08:36.911Z,101545.34
2022-12-19T21:11:05.753Z,101540.16
2022-12-19T21:13:33.537Z,101536.78
2022-12-19T21:16:07.417Z,101535.00
2022-12-19T21:18:36.861Z,101535.81
2022-12-19T21:21:04.727Z,101539.41
2022-12-19T21:23:32.417Z,101532.47
2022-12-19T21:26:01.482Z,101527.84
2022-12-19T21:28:29.476Z,101531.81
2022-12-19T21:31:06.945Z,101527.06
2022-12-19T21:33:34.464Z,101518.88
2022-12-19T21:36:09.864Z,101523.47
2022-12-19T21:38:37.829Z,101510.13
2022-12-19T21:41:06.116Z,101516.28
2022-12-19T21:43:36.975Z,101519.28
2022-12-19T21:46:14.361Z,101525.47
2022-12-19T21:48:43.972Z,101519.91
2022-12-19T21:51:12.763Z,101515.50
2022-12-19T21:53:40.638Z,101524.22
2022-12-19T21:56:26.640Z,101529.56
2022-12-19T21:58:59.207Z,101524.56
2022-12-19T22:01:27.982Z,101519.44
2022-12-19T22:04:06.850Z,101508.66
2022-12-19T22:06:35.337Z,101509.47
2022-12-19T22:09:04.324Z,101512.88
2022-12-19T22:11:31.877Z,101517.88
2022-12-19T22:14:01.074Z,101512.34
2022-12-19T22:16:29.444Z,101510.75
2022-12-19T22:18:56.991Z,101500.78
2022-12-19T22:21:25.432Z,101504.38
2022-12-19T22:23:53.117Z,101488.25
2022-12-19T22:26:22.883Z,101488.00
2022-12-19T22:28:53.121Z,101481.69
2022-12-19T22:31:31.707Z,101475.31
2022-12-19T22:34:03.088Z,101485.25
2022-12-19T22:36:32.462Z,101481.09
2022-12-19T22:39:01.785Z,101483.09
2022-12-19T22:41:28.986Z,101469.00
2022-12-19T22:43:56.794Z,101468.63
2022-12-19T22:46:30.043Z,101474.97
2022-12-19T22:48:58.999Z,101470.16
2022-12-19T22:51:27.502Z,101456.09
2022-12-19T22:53:56.795Z,101445.41
2022-12-19T22:56:26.990Z,101444.75
2022-12-19T22:58:56.671Z,101440.78
2022-12-19T23:01:26.894Z,101435.28
2022-12-19T23:03:55.889Z,101435.28
2022-12-19T23:06:25.616Z,101436.09
2022-12-19T23:08:53.602Z,101435.53
2022-12-19T23:11:25.512Z,101444.25
2022-12-19T23:13:52.909Z,101444.88
2022-12-19T23:16:20.727Z,101441.94
2022-12-19T23:18:48.259Z,101442.53
2022-12-19T23:21:18.818Z,101435.78
2022-12-19T23:23:47.260Z,101439.78
2022-12-19T23:26:17.527Z,101439.34
2022-12-19T23:28:45.533Z,101430.19
2022-12-19T23:31:13.911Z,101430.00
2022-12-19T23:33:41.709Z,101427.03
2022-12-19T23:36:10.527Z,101434.97
2022-12-19T23:38:37.925Z,101430.63
2022-12-19T23:41:07.731Z,101425.81
2022-12-19T23:43:36.589Z,101419.84
2022-12-19T23:46:13.986Z,101416.69
2022-12-19T23:48:42.157Z,101418.25
2022-12-19T23:51:12.929Z,101415.53
2022-12-19T23:53:40.541Z,101422.25
2022-12-19T23:56:12.713Z,101427.03
2022-12-19T23:58:40.735Z,101431.78
